sensor_id;sensor_type;location;lat;lon;timestamp;temperature;humidity
15394;DHT22;7795;47.986;11.868;2024-03-08T00:00:09;4.60;77.20
15394;DHT22;7795;47.986;11.868;2024-03-08T00:02:37;4.60;77.20
15394;DHT22;7795;47.986;11.868;2024-03-08T00:05:04;4.50;77.10
15394;DHT22;7795;47.986;11.868;2024-03-08T00:07:30;4.50;77.20
15394;DHT22;7795;47.986;11.868;2024-03-08T00:09:56;4.50;77.20
15394;DHT22;7795;47.986;11.868;2024-03-08T00:12:21;4.50;77.10
15394;DHT22;7795;47.986;11.868;2024-03-08T00:14:49;4.50;77.20
15394;DHT22;7795;47.986;11.868;2024-03-08T00:17:14;4.50;77.10
15394;DHT22;7795;47.986;11.868;2024-03-08T00:19:41;4.50;77.20
15394;DHT22;7795;47.986;11.868;2024-03-08T00:22:07;4.50;77.20
15394;DHT22;7795;47.986;11.868;2024-03-08T00:24:33;4.50;77.20
15394;DHT22;7795;47.986;11.868;2024-03-08T00:26:59;4.40;77.10
15394;DHT22;7795;47.986;11.868;2024-03-08T00:29:25;4.40;77.10
15394;DHT22;7795;47.986;11.868;2024-03-08T00:31:52;4.40;77.10
15394;DHT22;7795;47.986;11.868;2024-03-08T00:34:18;4.40;77.10
15394;DHT22;7795;47.986;11.868;2024-03-08T00:36:43;4.40;77.10
15394;DHT22;7795;47.986;11.868;2024-03-08T00:39:09;4.40;77.10
15394;DHT22;7795;47.986;11.868;2024-03-08T00:41:35;4.40;77.10
15394;DHT22;7795;47.986;11.868;2024-03-08T00:44:01;4.40;77.10
15394;DHT22;7795;47.986;11.868;2024-03-08T00:46:29;4.30;77.90
15394;DHT22;7795;47.986;11.868;2024-03-08T00:48:57;4.30;77.10
15394;DHT22;7795;47.986;11.868;2024-03-08T00:51:22;4.30;77.10
15394;DHT22;7795;47.986;11.868;2024-03-08T00:53:48;4.30;77.10
15394;DHT22;7795;47.986;11.868;2024-03-08T00:56:14;4.30;77.10
15394;DHT22;7795;47.986;11.868;2024-03-08T00:58:40;4.30;77.10
15394;DHT22;7795;47.986;11.868;2024-03-08T01:01:06;4.30;77.10
15394;DHT22;7795;47.986;11.868;2024-03-08T01:03:32;4.30;77.10
15394;DHT22;7795;47.986;11.868;2024-03-08T01:05:59;4.20;77.10
15394;DHT22;7795;47.986;11.868;2024-03-08T01:08:26;4.30;77.10
15394;DHT22;7795;47.986;11.868;2024-03-08T01:10:53;4.20;77.10
15394;DHT22;7795;47.986;11.868;2024-03-08T01:13:19;4.20;77.10
15394;DHT22;7795;47.986;11.868;2024-03-08T01:15:44;4.20;77.10
15394;DHT22;7795;47.986;11.868;2024-03-08T01:18:10;4.20;77.10
15394;DHT22;7795;47.986;11.868;2024-03-08T01:20:36;4.10;77.10
15394;DHT22;7795;47.986;11.868;2024-03-08T01:23:03;4.10;77.00
15394;DHT22;7795;47.986;11.868;2024-03-08T01:25:32;4.10;77.10
15394;DHT22;7795;47.986;11.868;2024-03-08T01:27:58;4.10;77.10
15394;DHT22;7795;47.986;11.868;2024-03-08T01:30:24;4.10;77.20
15394;DHT22;7795;47.986;11.868;2024-03-08T01:32:50;4.10;77.20
15394;DHT22;7795;47.986;11.868;2024-03-08T01:35:16;4.00;77.20
15394;DHT22;7795;47.986;11.868;2024-03-08T01:37:43;4.00;77.20
15394;DHT22;7795;47.986;11.868;2024-03-08T01:40:10;4.00;77.30
15394;DHT22;7795;47.986;11.868;2024-03-08T01:42:36;4.00;77.30
15394;DHT22;7795;47.986;11.868;2024-03-08T01:45:04;4.00;77.30
15394;DHT22;7795;47.986;11.868;2024-03-08T01:47:30;4.00;77.40
15394;DHT22;7795;47.986;11.868;2024-03-08T01:49:58;3.90;77.30
15394;DHT22;7795;47.986;11.868;2024-03-08T01:52:25;3.90;77.40
15394;DHT22;7795;47.986;11.868;2024-03-08T01:54:52;3.90;77.40
15394;DHT22;7795;47.986;11.868;2024-03-08T01:57:19;3.90;77.30
15394;DHT22;7795;47.986;11.868;2024-03-08T01:59:45;3.90;77.30
15394;DHT22;7795;47.986;11.868;2024-03-08T02:02:15;3.90;77.40
15394;DHT22;7795;47.986;11.868;2024-03-08T02:04:43;3.90;77.40
15394;DHT22;7795;47.986;11.868;2024-03-08T02:07:10;3.90;77.30
15394;DHT22;7795;47.986;11.868;2024-03-08T02:09:36;3.90;77.30
15394;DHT22;7795;47.986;11.868;2024-03-08T02:12:02;3.90;77.30
15394;DHT22;7795;47.986;11.868;2024-03-08T02:14:29;3.90;77.30
15394;DHT22;7795;47.986;11.868;2024-03-08T02:17:00;3.90;77.30
15394;DHT22;7795;47.986;11.868;2024-03-08T02:19:26;3.90;77.30
15394;DHT22;7795;47.986;11.868;2024-03-08T02:21:53;3.90;77.30
15394;DHT22;7795;47.986;11.868;2024-03-08T02:24:19;3.90;77.40
15394;DHT22;7795;47.986;11.868;2024-03-08T02:26:45;3.90;77.30
15394;DHT22;7795;47.986;11.868;2024-03-08T02:29:11;3.90;77.40
15394;DHT22;7795;47.986;11.868;2024-03-08T02:31:38;3.80;77.30
15394;DHT22;7795;47.986;11.868;2024-03-08T02:34:05;3.80;77.40
15394;DHT22;7795;47.986;11.868;2024-03-08T02:36:30;3.80;77.40
15394;DHT22;7795;47.986;11.868;2024-03-08T02:39:02;3.80;77.40
15394;DHT22;7795;47.986;11.868;2024-03-08T02:41:28;3.80;77.50
15394;DHT22;7795;47.986;11.868;2024-03-08T02:43:53;3.80;77.40
15394;DHT22;7795;47.986;11.868;2024-03-08T02:46:20;3.80;77.40
15394;DHT22;7795;47.986;11.868;2024-03-08T02:48:46;3.80;77.40
15394;DHT22;7795;47.986;11.868;2024-03-08T02:51:12;3.80;77.40
15394;DHT22;7795;47.986;11.868;2024-03-08T02:53:39;3.70;77.30
15394;DHT22;7795;47.986;11.868;2024-03-08T02:56:06;3.70;77.40
15394;DHT22;7795;47.986;11.868;2024-03-08T02:58:34;3.70;77.40
15394;DHT22;7795;47.986;11.868;2024-03-08T03:01:00;3.70;77.40
15394;DHT22;7795;47.986;11.868;2024-03-08T03:03:26;3.70;77.40
15394;DHT22;7795;47.986;11.868;2024-03-08T03:05:52;3.70;77.40
15394;DHT22;7795;47.986;11.868;2024-03-08T03:08:21;3.70;77.50
15394;DHT22;7795;47.986;11.868;2024-03-08T03:10:47;3.70;77.50
15394;DHT22;7795;47.986;11.868;2024-03-08T03:13:14;3.60;77.40
15394;DHT22;7795;47.986;11.868;2024-03-08T03:15:40;3.60;77.40
15394;DHT22;7795;47.986;11.868;2024-03-08T03:18:08;3.60;77.40
15394;DHT22;7795;47.986;11.868;2024-03-08T03:20:34;3.60;77.40
15394;DHT22;7795;47.986;11.868;2024-03-08T03:23:06;3.60;77.50
15394;DHT22;7795;47.986;11.868;2024-03-08T03:25:33;3.60;77.60
15394;DHT22;7795;47.986;11.868;2024-03-08T03:28:00;3.60;77.60
15394;DHT22;7795;47.986;11.868;2024-03-08T03:30:28;3.60;77.60
15394;DHT22;7795;47.986;11.868;2024-03-08T03:32:58;3.60;77.60
15394;DHT22;7795;47.986;11.868;2024-03-08T03:35:26;3.60;77.60
15394;DHT22;7795;47.986;11.868;2024-03-08T03:37:52;3.60;77.60
15394;DHT22;7795;47.986;11.868;2024-03-08T03:40:32;3.50;77.40
15394;DHT22;7795;47.986;11.868;2024-03-08T03:42:59;3.50;77.40
15394;DHT22;7795;47.986;11.868;2024-03-08T03:45:25;3.50;77.50
15394;DHT22;7795;47.986;11.868;2024-03-08T03:47:52;3.50;77.50
15394;DHT22;7795;47.986;11.868;2024-03-08T03:50:18;3.50;77.60
15394;DHT22;7795;47.986;11.868;2024-03-08T03:52:45;3.50;77.60
15394;DHT22;7795;47.986;11.868;2024-03-08T03:55:10;3.50;77.60
15394;DHT22;7795;47.986;11.868;2024-03-08T03:57:37;3.50;77.70
15394;DHT22;7795;47.986;11.868;2024-03-08T04:00:04;3.50;77.70
15394;DHT22;7795;47.986;11.868;2024-03-08T04:02:31;3.40;77.70
15394;DHT22;7795;47.986;11.868;2024-03-08T04:04:59;3.50;77.80
15394;DHT22;7795;47.986;11.868;2024-03-08T04:07:24;3.50;77.90
15394;DHT22;7795;47.986;11.868;2024-03-08T04:09:50;3.40;77.70
15394;DHT22;7795;47.986;11.868;2024-03-08T04:12:16;3.40;77.70
15394;DHT22;7795;47.986;11.868;2024-03-08T04:14:42;3.40;77.80
15394;DHT22;7795;47.986;11.868;2024-03-08T04:17:08;3.40;77.80
15394;DHT22;7795;47.986;11.868;2024-03-08T04:19:34;3.40;77.80
15394;DHT22;7795;47.986;11.868;2024-03-08T04:22:01;3.40;77.90
15394;DHT22;7795;47.986;11.868;2024-03-08T04:24:27;3.40;77.90
15394;DHT22;7795;47.986;11.868;2024-03-08T04:26:53;3.30;77.80
15394;DHT22;7795;47.986;11.868;2024-03-08T04:29:20;3.40;77.90
15394;DHT22;7795;47.986;11.868;2024-03-08T04:31:47;3.30;77.90
15394;DHT22;7795;47.986;11.868;2024-03-08T04:34:13;3.30;78.00
15394;DHT22;7795;47.986;11.868;2024-03-08T04:36:40;3.30;78.00
15394;DHT22;7795;47.986;11.868;2024-03-08T04:39:07;3.30;78.00
15394;DHT22;7795;47.986;11.868;2024-03-08T04:41:38;3.30;78.20
15394;DHT22;7795;47.986;11.868;2024-03-08T04:44:04;3.30;78.20
15394;DHT22;7795;47.986;11.868;2024-03-08T04:46:30;3.30;78.30
15394;DHT22;7795;47.986;11.868;2024-03-08T04:48:56;3.30;78.20
15394;DHT22;7795;47.986;11.868;2024-03-08T04:51:22;3.30;78.20
15394;DHT22;7795;47.986;11.868;2024-03-08T04:53:48;3.30;78.20
15394;DHT22;7795;47.986;11.868;2024-03-08T04:56:15;3.30;78.20
15394;DHT22;7795;47.986;11.868;2024-03-08T04:58:41;3.30;78.30
15394;DHT22;7795;47.986;11.868;2024-03-08T05:01:07;3.30;78.20
15394;DHT22;7795;47.986;11.868;2024-03-08T05:03:36;3.30;78.20
15394;DHT22;7795;47.986;11.868;2024-03-08T05:06:02;3.20;78.10
15394;DHT22;7795;47.986;11.868;2024-03-08T05:08:27;3.20;78.20
15394;DHT22;7795;47.986;11.868;2024-03-08T05:10:54;3.20;78.20
15394;DHT22;7795;47.986;11.868;2024-03-08T05:13:21;3.20;78.20
15394;DHT22;7795;47.986;11.868;2024-03-08T05:15:48;3.20;78.20
15394;DHT22;7795;47.986;11.868;2024-03-08T05:18:15;3.20;78.30
15394;DHT22;7795;47.986;11.868;2024-03-08T05:20:41;3.20;78.20
15394;DHT22;7795;47.986;11.868;2024-03-08T05:23:06;3.20;78.30
15394;DHT22;7795;47.986;11.868;2024-03-08T05:25:32;3.20;78.30
15394;DHT22;7795;47.986;11.868;2024-03-08T05:27:58;3.20;78.30
15394;DHT22;7795;47.986;11.868;2024-03-08T05:30:25;3.20;78.40
15394;DHT22;7795;47.986;11.868;2024-03-08T05:32:51;3.20;78.40
15394;DHT22;7795;47.986;11.868;2024-03-08T05:35:17;3.20;78.40
15394;DHT22;7795;47.986;11.868;2024-03-08T05:37:43;3.20;78.40
15394;DHT22;7795;47.986;11.868;2024-03-08T05:40:09;3.20;78.50
15394;DHT22;7795;47.986;11.868;2024-03-08T05:42:35;3.20;78.50
15394;DHT22;7795;47.986;11.868;2024-03-08T05:45:02;3.20;78.50
15394;DHT22;7795;47.986;11.868;2024-03-08T05:47:29;3.20;78.40
15394;DHT22;7795;47.986;11.868;2024-03-08T05:49:55;3.20;78.40
15394;DHT22;7795;47.986;11.868;2024-03-08T05:52:21;3.20;78.40
15394;DHT22;7795;47.986;11.868;2024-03-08T05:54:46;3.20;78.40
15394;DHT22;7795;47.986;11.868;2024-03-08T05:57:12;3.20;78.40
15394;DHT22;7795;47.986;11.868;2024-03-08T05:59:39;3.20;78.40
15394;DHT22;7795;47.986;11.868;2024-03-08T06:02:05;3.20;78.40
15394;DHT22;7795;47.986;11.868;2024-03-08T06:04:32;3.20;78.40
15394;DHT22;7795;47.986;11.868;2024-03-08T06:06:58;3.20;78.50
15394;DHT22;7795;47.986;11.868;2024-03-08T06:09:24;3.10;78.50
15394;DHT22;7795;47.986;11.868;2024-03-08T06:11:51;3.10;78.50
15394;DHT22;7795;47.986;11.868;2024-03-08T06:14:17;3.10;78.60
15394;DHT22;7795;47.986;11.868;2024-03-08T06:16:44;3.10;78.60
15394;DHT22;7795;47.986;11.868;2024-03-08T06:19:10;3.20;78.70
15394;DHT22;7795;47.986;11.868;2024-03-08T06:21:37;3.20;78.70
15394;DHT22;7795;47.986;11.868;2024-03-08T06:24:03;3.20;78.90
15394;DHT22;7795;47.986;11.868;2024-03-08T06:26:30;3.20;78.90
15394;DHT22;7795;47.986;11.868;2024-03-08T06:28:56;3.20;78.90
15394;DHT22;7795;47.986;11.868;2024-03-08T06:31:22;3.20;78.90
15394;DHT22;7795;47.986;11.868;2024-03-08T06:33:47;3.20;79.00
15394;DHT22;7795;47.986;11.868;2024-03-08T06:36:16;3.30;79.20
15394;DHT22;7795;47.986;11.868;2024-03-08T06:38:46;3.30;79.20
15394;DHT22;7795;47.986;11.868;2024-03-08T06:41:12;3.30;79.30
15394;DHT22;7795;47.986;11.868;2024-03-08T06:43:42;3.30;79.20
15394;DHT22;7795;47.986;11.868;2024-03-08T06:46:08;3.40;79.30
15394;DHT22;7795;47.986;11.868;2024-03-08T06:48:34;3.40;79.40
15394;DHT22;7795;47.986;11.868;2024-03-08T06:51:00;3.40;79.40
15394;DHT22;7795;47.986;11.868;2024-03-08T06:53:26;3.40;79.30
15394;DHT22;7795;47.986;11.868;2024-03-08T06:55:54;3.50;79.40
15394;DHT22;7795;47.986;11.868;2024-03-08T06:58:20;3.50;79.50
15394;DHT22;7795;47.986;11.868;2024-03-08T07:00:46;3.50;79.60
15394;DHT22;7795;47.986;11.868;2024-03-08T07:03:12;3.60;79.60
15394;DHT22;7795;47.986;11.868;2024-03-08T07:05:42;3.60;79.60
15394;DHT22;7795;47.986;11.868;2024-03-08T07:08:08;3.70;79.70
15394;DHT22;7795;47.986;11.868;2024-03-08T07:10:34;3.80;79.80
15394;DHT22;7795;47.986;11.868;2024-03-08T07:13:02;3.80;79.70
15394;DHT22;7795;47.986;11.868;2024-03-08T07:15:28;3.90;79.70
15394;DHT22;7795;47.986;11.868;2024-03-08T07:17:54;3.90;79.70
15394;DHT22;7795;47.986;11.868;2024-03-08T07:20:20;4.00;79.60
15394;DHT22;7795;47.986;11.868;2024-03-08T07:22:47;4.00;79.50
15394;DHT22;7795;47.986;11.868;2024-03-08T07:25:13;4.10;79.50
15394;DHT22;7795;47.986;11.868;2024-03-08T07:27:50;4.10;79.40
15394;DHT22;7795;47.986;11.868;2024-03-08T07:30:21;4.20;79.40
15394;DHT22;7795;47.986;11.868;2024-03-08T07:33:25;4.20;79.20
15394;DHT22;7795;47.986;11.868;2024-03-08T07:35:52;4.30;79.10
15394;DHT22;7795;47.986;11.868;2024-03-08T07:38:18;4.30;79.10
15394;DHT22;7795;47.986;11.868;2024-03-08T07:40:46;4.40;79.10
15394;DHT22;7795;47.986;11.868;2024-03-08T07:43:13;4.40;79.10
15394;DHT22;7795;47.986;11.868;2024-03-08T07:45:41;4.50;79.10
15394;DHT22;7795;47.986;11.868;2024-03-08T07:48:07;4.50;79.00
15394;DHT22;7795;47.986;11.868;2024-03-08T07:50:36;4.50;78.90
15394;DHT22;7795;47.986;11.868;2024-03-08T07:53:03;4.60;78.90
15394;DHT22;7795;47.986;11.868;2024-03-08T07:55:29;4.70;78.90
15394;DHT22;7795;47.986;11.868;2024-03-08T07:57:57;4.70;78.80
15394;DHT22;7795;47.986;11.868;2024-03-08T08:00:23;4.80;78.70
15394;DHT22;7795;47.986;11.868;2024-03-08T08:02:51;4.80;78.50
15394;DHT22;7795;47.986;11.868;2024-03-08T08:05:17;4.80;78.30
15394;DHT22;7795;47.986;11.868;2024-03-08T08:07:44;4.80;78.40
15394;DHT22;7795;47.986;11.868;2024-03-08T08:10:10;4.90;78.40
15394;DHT22;7795;47.986;11.868;2024-03-08T08:12:44;4.90;78.20
15394;DHT22;7795;47.986;11.868;2024-03-08T08:15:10;4.90;78.20
15394;DHT22;7795;47.986;11.868;2024-03-08T08:17:36;4.90;78.20
15394;DHT22;7795;47.986;11.868;2024-03-08T08:20:04;5.00;78.30
15394;DHT22;7795;47.986;11.868;2024-03-08T08:22:31;5.00;78.20
15394;DHT22;7795;47.986;11.868;2024-03-08T08:24:57;5.10;78.20
15394;DHT22;7795;47.986;11.868;2024-03-08T08:27:22;5.10;78.20
15394;DHT22;7795;47.986;11.868;2024-03-08T08:29:48;5.10;78.20
15394;DHT22;7795;47.986;11.868;2024-03-08T08:32:15;5.20;78.40
15394;DHT22;7795;47.986;11.868;2024-03-08T08:34:41;5.20;78.50
15394;DHT22;7795;47.986;11.868;2024-03-08T08:37:10;5.30;78.40
15394;DHT22;7795;47.986;11.868;2024-03-08T08:39:36;5.30;78.30
15394;DHT22;7795;47.986;11.868;2024-03-08T08:42:03;5.40;78.20
15394;DHT22;7795;47.986;11.868;2024-03-08T08:44:29;5.40;78.10
15394;DHT22;7795;47.986;11.868;2024-03-08T08:46:57;5.50;78.20
15394;DHT22;7795;47.986;11.868;2024-03-08T08:49:22;5.50;78.20
15394;DHT22;7795;47.986;11.868;2024-03-08T08:51:49;5.60;78.20
15394;DHT22;7795;47.986;11.868;2024-03-08T08:54:17;5.70;78.10
15394;DHT22;7795;47.986;11.868;2024-03-08T08:56:43;5.70;77.80
15394;DHT22;7795;47.986;11.868;2024-03-08T08:59:13;5.80;77.90
15394;DHT22;7795;47.986;11.868;2024-03-08T09:01:44;5.90;77.80
15394;DHT22;7795;47.986;11.868;2024-03-08T09:04:12;6.00;77.80
15394;DHT22;7795;47.986;11.868;2024-03-08T09:06:38;6.00;77.60
15394;DHT22;7795;47.986;11.868;2024-03-08T09:09:07;6.10;77.60
15394;DHT22;7795;47.986;11.868;2024-03-08T09:11:37;6.20;77.60
15394;DHT22;7795;47.986;11.868;2024-03-08T09:14:07;6.20;77.40
15394;DHT22;7795;47.986;11.868;2024-03-08T09:16:33;6.30;77.40
15394;DHT22;7795;47.986;11.868;2024-03-08T09:18:59;6.30;77.20
15394;DHT22;7795;47.986;11.868;2024-03-08T09:21:25;6.40;77.30
15394;DHT22;7795;47.986;11.868;2024-03-08T09:23:53;6.50;77.30
15394;DHT22;7795;47.986;11.868;2024-03-08T09:26:19;6.60;77.30
15394;DHT22;7795;47.986;11.868;2024-03-08T09:28:46;6.60;77.30
15394;DHT22;7795;47.986;11.868;2024-03-08T09:31:12;6.70;77.40
15394;DHT22;7795;47.986;11.868;2024-03-08T09:33:38;6.80;77.40
15394;DHT22;7795;47.986;11.868;2024-03-08T09:36:05;6.90;77.10
15394;DHT22;7795;47.986;11.868;2024-03-08T09:38:33;6.90;76.80
15394;DHT22;7795;47.986;11.868;2024-03-08T09:41:00;7.00;76.70
15394;DHT22;7795;47.986;11.868;2024-03-08T09:43:27;7.00;76.70
15394;DHT22;7795;47.986;11.868;2024-03-08T09:45:55;7.10;76.70
15394;DHT22;7795;47.986;11.868;2024-03-08T09:48:22;7.20;76.50
15394;DHT22;7795;47.986;11.868;2024-03-08T09:50:48;7.30;76.40
15394;DHT22;7795;47.986;11.868;2024-03-08T09:53:15;7.30;76.30
15394;DHT22;7795;47.986;11.868;2024-03-08T09:55:40;7.40;76.20
15394;DHT22;7795;47.986;11.868;2024-03-08T09:58:12;7.40;75.80
15394;DHT22;7795;47.986;11.868;2024-03-08T10:00:55;7.50;75.70
15394;DHT22;7795;47.986;11.868;2024-03-08T10:03:24;7.50;75.70
15394;DHT22;7795;47.986;11.868;2024-03-08T10:05:53;7.60;76.50
15394;DHT22;7795;47.986;11.868;2024-03-08T10:08:22;7.70;75.90
15394;DHT22;7795;47.986;11.868;2024-03-08T10:10:48;7.80;75.70
15394;DHT22;7795;47.986;11.868;2024-03-08T10:13:15;7.80;75.40
15394;DHT22;7795;47.986;11.868;2024-03-08T10:15:42;7.90;75.30
15394;DHT22;7795;47.986;11.868;2024-03-08T10:18:10;7.90;75.40
15394;DHT22;7795;47.986;11.868;2024-03-08T10:20:36;8.00;75.40
15394;DHT22;7795;47.986;11.868;2024-03-08T10:23:03;8.00;75.30
15394;DHT22;7795;47.986;11.868;2024-03-08T10:25:30;8.10;75.20
15394;DHT22;7795;47.986;11.868;2024-03-08T10:27:56;8.20;75.20
15394;DHT22;7795;47.986;11.868;2024-03-08T10:30:22;8.20;75.00
15394;DHT22;7795;47.986;11.868;2024-03-08T10:32:49;8.30;75.10
15394;DHT22;7795;47.986;11.868;2024-03-08T10:35:16;8.40;75.00
15394;DHT22;7795;47.986;11.868;2024-03-08T10:37:45;8.40;75.10
15394;DHT22;7795;47.986;11.868;2024-03-08T10:40:16;8.50;74.90
15394;DHT22;7795;47.986;11.868;2024-03-08T10:42:51;8.60;74.50
15394;DHT22;7795;47.986;11.868;2024-03-08T10:45:26;8.70;74.30
15394;DHT22;7795;47.986;11.868;2024-03-08T10:48:04;8.80;74.20
15394;DHT22;7795;47.986;11.868;2024-03-08T10:50:34;8.80;73.90
15394;DHT22;7795;47.986;11.868;2024-03-08T10:53:01;8.90;74.10
15394;DHT22;7795;47.986;11.868;2024-03-08T10:55:29;8.90;74.00
15394;DHT22;7795;47.986;11.868;2024-03-08T10:57:58;9.00;73.90
15394;DHT22;7795;47.986;11.868;2024-03-08T11:00:24;9.00;74.10
15394;DHT22;7795;47.986;11.868;2024-03-08T11:02:53;9.10;74.00
15394;DHT22;7795;47.986;11.868;2024-03-08T11:05:35;9.20;74.00
15394;DHT22;7795;47.986;11.868;2024-03-08T11:08:05;9.20;73.60
15394;DHT22;7795;47.986;11.868;2024-03-08T11:10:31;9.30;73.50
15394;DHT22;7795;47.986;11.868;2024-03-08T11:12:58;9.30;73.80
15394;DHT22;7795;47.986;11.868;2024-03-08T11:15:24;9.40;73.90
15394;DHT22;7795;47.986;11.868;2024-03-08T11:17:51;9.40;73.70
15394;DHT22;7795;47.986;11.868;2024-03-08T11:20:18;9.50;73.60
15394;DHT22;7795;47.986;11.868;2024-03-08T11:22:52;9.50;73.50
15394;DHT22;7795;47.986;11.868;2024-03-08T11:25:35;9.60;73.20
15394;DHT22;7795;47.986;11.868;2024-03-08T11:28:11;9.70;72.40
15394;DHT22;7795;47.986;11.868;2024-03-08T11:30:44;9.80;72.50
15394;DHT22;7795;47.986;11.868;2024-03-08T11:33:11;9.80;72.00
15394;DHT22;7795;47.986;11.868;2024-03-08T11:35:39;9.90;72.30
15394;DHT22;7795;47.986;11.868;2024-03-08T11:38:07;9.90;72.20
15394;DHT22;7795;47.986;11.868;2024-03-08T11:40:34;9.90;71.70
15394;DHT22;7795;47.986;11.868;2024-03-08T11:43:01;9.90;71.70
15394;DHT22;7795;47.986;11.868;2024-03-08T11:45:29;10.00;71.70
15394;DHT22;7795;47.986;11.868;2024-03-08T11:47:55;10.00;71.80
15394;DHT22;7795;47.986;11.868;2024-03-08T11:50:22;10.00;71.70
15394;DHT22;7795;47.986;11.868;2024-03-08T11:52:49;10.10;71.70
15394;DHT22;7795;47.986;11.868;2024-03-08T11:55:17;10.10;71.60
15394;DHT22;7795;47.986;11.868;2024-03-08T11:57:44;10.20;71.50
15394;DHT22;7795;47.986;11.868;2024-03-08T12:00:15;10.20;71.30
15394;DHT22;7795;47.986;11.868;2024-03-08T12:03:01;10.30;71.00
15394;DHT22;7795;47.986;11.868;2024-03-08T12:05:27;10.30;70.30
15394;DHT22;7795;47.986;11.868;2024-03-08T12:07:56;10.40;71.00
15394;DHT22;7795;47.986;11.868;2024-03-08T12:10:24;10.50;70.60
15394;DHT22;7795;47.986;11.868;2024-03-08T12:12:52;10.50;70.50
15394;DHT22;7795;47.986;11.868;2024-03-08T12:15:19;10.60;70.40
15394;DHT22;7795;47.986;11.868;2024-03-08T12:17:45;10.60;70.10
15394;DHT22;7795;47.986;11.868;2024-03-08T12:20:15;10.60;70.20
15394;DHT22;7795;47.986;11.868;2024-03-08T12:22:43;10.70;70.20
15394;DHT22;7795;47.986;11.868;2024-03-08T12:25:10;10.70;70.40
15394;DHT22;7795;47.986;11.868;2024-03-08T12:27:38;10.80;70.20
15394;DHT22;7795;47.986;11.868;2024-03-08T12:30:19;10.90;69.90
15394;DHT22;7795;47.986;11.868;2024-03-08T12:32:49;10.90;68.90
15394;DHT22;7795;47.986;11.868;2024-03-08T12:35:15;11.00;69.50
15394;DHT22;7795;47.986;11.868;2024-03-08T12:37:42;11.00;69.40
15394;DHT22;7795;47.986;11.868;2024-03-08T12:40:09;11.10;69.10
15394;DHT22;7795;47.986;11.868;2024-03-08T12:42:37;11.10;69.10
15394;DHT22;7795;47.986;11.868;2024-03-08T12:45:05;11.20;68.90
15394;DHT22;7795;47.986;11.868;2024-03-08T12:47:35;11.20;68.90
15394;DHT22;7795;47.986;11.868;2024-03-08T12:50:01;11.30;68.60
15394;DHT22;7795;47.986;11.868;2024-03-08T12:52:27;11.30;68.20
15394;DHT22;7795;47.986;11.868;2024-03-08T12:54:55;11.40;67.90
15394;DHT22;7795;47.986;11.868;2024-03-08T12:57:22;11.40;67.80
15394;DHT22;7795;47.986;11.868;2024-03-08T12:59:49;11.40;67.50
15394;DHT22;7795;47.986;11.868;2024-03-08T13:02:16;11.40;67.40
15394;DHT22;7795;47.986;11.868;2024-03-08T13:04:42;11.40;67.30
15394;DHT22;7795;47.986;11.868;2024-03-08T13:07:08;11.50;67.20
15394;DHT22;7795;47.986;11.868;2024-03-08T13:09:33;11.50;67.20
15394;DHT22;7795;47.986;11.868;2024-03-08T13:12:03;11.50;67.20
15394;DHT22;7795;47.986;11.868;2024-03-08T13:14:29;11.60;66.90
15394;DHT22;7795;47.986;11.868;2024-03-08T13:16:59;11.70;67.00
15394;DHT22;7795;47.986;11.868;2024-03-08T13:19:25;11.70;66.60
15394;DHT22;7795;47.986;11.868;2024-03-08T13:21:53;11.70;66.30
15394;DHT22;7795;47.986;11.868;2024-03-08T13:24:19;11.70;66.30
15394;DHT22;7795;47.986;11.868;2024-03-08T13:26:45;11.80;66.40
15394;DHT22;7795;47.986;11.868;2024-03-08T13:29:11;11.80;66.50
15394;DHT22;7795;47.986;11.868;2024-03-08T13:31:37;11.90;66.30
15394;DHT22;7795;47.986;11.868;2024-03-08T13:34:05;11.90;66.60
15394;DHT22;7795;47.986;11.868;2024-03-08T13:36:31;11.90;66.60
15394;DHT22;7795;47.986;11.868;2024-03-08T13:39:04;12.00;66.90
15394;DHT22;7795;47.986;11.868;2024-03-08T13:41:40;12.00;66.80
15394;DHT22;7795;47.986;11.868;2024-03-08T13:44:07;12.00;66.70
15394;DHT22;7795;47.986;11.868;2024-03-08T13:46:33;12.10;66.30
15394;DHT22;7795;47.986;11.868;2024-03-08T13:49:05;12.10;66.10
15394;DHT22;7795;47.986;11.868;2024-03-08T13:51:33;12.10;65.90
15394;DHT22;7795;47.986;11.868;2024-03-08T13:53:59;12.20;66.10
15394;DHT22;7795;47.986;11.868;2024-03-08T13:56:26;12.20;66.20
15394;DHT22;7795;47.986;11.868;2024-03-08T13:58:52;12.20;65.90
15394;DHT22;7795;47.986;11.868;2024-03-08T14:01:18;12.20;65.60
15394;DHT22;7795;47.986;11.868;2024-03-08T14:03:43;12.30;65.60
15394;DHT22;7795;47.986;11.868;2024-03-08T14:06:11;12.30;65.70
15394;DHT22;7795;47.986;11.868;2024-03-08T14:08:37;12.30;66.00
15394;DHT22;7795;47.986;11.868;2024-03-08T14:11:04;12.30;65.70
15394;DHT22;7795;47.986;11.868;2024-03-08T14:13:41;12.30;65.40
15394;DHT22;7795;47.986;11.868;2024-03-08T14:16:08;12.30;64.90
15394;DHT22;7795;47.986;11.868;2024-03-08T14:18:36;12.30;65.90
15394;DHT22;7795;47.986;11.868;2024-03-08T14:21:02;12.40;65.40
15394;DHT22;7795;47.986;11.868;2024-03-08T14:23:31;12.30;65.30
15394;DHT22;7795;47.986;11.868;2024-03-08T14:25:58;12.40;65.20
15394;DHT22;7795;47.986;11.868;2024-03-08T14:28:25;12.40;65.00
15394;DHT22;7795;47.986;11.868;2024-03-08T14:30:52;12.40;64.40
15394;DHT22;7795;47.986;11.868;2024-03-08T14:33:18;12.40;64.80
15394;DHT22;7795;47.986;11.868;2024-03-08T14:35:44;12.50;64.60
15394;DHT22;7795;47.986;11.868;2024-03-08T14:38:12;12.50;64.20
15394;DHT22;7795;47.986;11.868;2024-03-08T14:40:40;12.50;64.30
15394;DHT22;7795;47.986;11.868;2024-03-08T14:43:06;12.50;64.40
15394;DHT22;7795;47.986;11.868;2024-03-08T14:45:32;12.50;64.40
15394;DHT22;7795;47.986;11.868;2024-03-08T14:47:58;12.50;64.20
15394;DHT22;7795;47.986;11.868;2024-03-08T14:50:25;12.40;64.30
15394;DHT22;7795;47.986;11.868;2024-03-08T14:52:51;12.50;64.30
15394;DHT22;7795;47.986;11.868;2024-03-08T14:55:18;12.40;64.40
15394;DHT22;7795;47.986;11.868;2024-03-08T14:57:48;12.50;64.60
15394;DHT22;7795;47.986;11.868;2024-03-08T15:00:17;12.50;64.20
15394;DHT22;7795;47.986;11.868;2024-03-08T15:02:44;12.40;64.10
15394;DHT22;7795;47.986;11.868;2024-03-08T15:05:10;12.50;64.30
15394;DHT22;7795;47.986;11.868;2024-03-08T15:07:37;12.50;64.20
15394;DHT22;7795;47.986;11.868;2024-03-08T15:10:06;12.50;64.20
15394;DHT22;7795;47.986;11.868;2024-03-08T15:12:37;12.50;64.20
15394;DHT22;7795;47.986;11.868;2024-03-08T15:15:07;12.40;64.10
15394;DHT22;7795;47.986;11.868;2024-03-08T15:17:33;12.40;64.00
15394;DHT22;7795;47.986;11.868;2024-03-08T15:20:00;12.40;64.10
15394;DHT22;7795;47.986;11.868;2024-03-08T15:22:26;12.40;64.10
15394;DHT22;7795;47.986;11.868;2024-03-08T15:24:52;12.40;64.10
15394;DHT22;7795;47.986;11.868;2024-03-08T15:27:18;12.40;64.10
15394;DHT22;7795;47.986;11.868;2024-03-08T15:29:44;12.40;64.10
15394;DHT22;7795;47.986;11.868;2024-03-08T15:32:14;12.40;64.10
15394;DHT22;7795;47.986;11.868;2024-03-08T15:34:45;12.30;63.80
15394;DHT22;7795;47.986;11.868;2024-03-08T15:37:11;12.30;64.10
15394;DHT22;7795;47.986;11.868;2024-03-08T15:39:42;12.30;64.10
15394;DHT22;7795;47.986;11.868;2024-03-08T15:42:08;12.30;64.00